Página principal
METAR-TAF:

METAR-TAF

Aeroportos :

Harbin, China

Aeroporto Internacional Harbin Taiping

latitude: 45-45N, longitude: 126-46E, altura: 143 m

Observação actual do tempo

O boletim foi feito há 1 hora e 4 minutos, às 18:00 UTC
Vento 2 kt de sul
Temperatura 14°C
Humidade 94%
Pressão 1012 hPa
Visibilidade 10 km ou mais
sem nuvens abaixo de 1500 metros e sem cumulonimbus

METAR: ZYHB 281800Z 17001MPS CAVOK 14/13 Q1012 NOSIG

Hora: 03:04 (19:04 UTC)

Previsão

O boletim foi feito há 4 horas e 2 minutos, às 15:02 UTC
Previsão válida de 28 às 18 UTC a 29 às 18 UTC
Vento 6 kt de sul
Visibilidade: 5000 m
Nuvens dispersasa uma altura de 3000 ft
neblina

TAF: ZYHB 281502Z 2818/2918 18003MPS 5000 BR SCT030 TX29/2906Z TN16/2821Z

Observações e previsões do tempo de mais de 4000 aeroportos (mensagens METAR e TAF).

As estações disponíveis são os pontos amarelos e vermelhos sobre o mapa.

Mova o rato sobre o mapa para ver o nome da estação.

Depois clique no ponto para visualizar as observações e previsões meteorológicas.

Para alterar o mapa : clique nos botões verdes com uma cruz preta para aumentar o zoom; no botão verde com uma pitada de zoom; ou nas setas verdes para mapas adjacentes.


METAR-TAF: